Time;durP1;ratioP1;P1;durP2;ratioP2;P2;SDS_P1;SDS_P2;PMS_P1;PMS_P2;Temp;Humidity;BMP_temperature;BMP_pressure;BME280_temperature;BME280_humidity;BME280_pressure;Samples;Min_cycle;Max_cycle;Signal;HPM_P1;HPM_P2
2022/01/26 10:41:49;;;;;;;61.45;22.42;;;;;;;-0.53;100.00;96354.47;5025106;28;20435;-62
2022/01/26 10:44:18;;;;;;;68.97;26.80;;;;;;;-0.28;100.00;96252.59;5017044;28;20091;-62
2022/01/26 10:46:46;;;;;;;75.68;28.85;;;;;;;0.02;100.00;96187.78;5020560;28;20080;-60
2022/01/26 10:54:23;;;;;;;57.95;24.40;;;;;;;0.34;100.00;96110.38;5025248;28;20030;-64
2022/01/26 10:56:50;;;;;;;56.42;23.77;;;;;;;0.62;100.00;96090.34;5026334;28;20032;-64
2022/01/26 10:59:16;;;;;;;50.90;22.10;;;;;;;0.92;100.00;96085.16;5024300;28;20022;-63
2022/01/26 11:01:42;;;;;;;48.90;22.45;;;;;;;1.19;100.00;96063.41;5023727;28;20588;-63
2022/01/26 11:04:08;;;;;;;47.35;22.17;;;;;;;1.24;100.00;96058.41;5007147;28;20104;-64
2022/01/26 11:06:35;;;;;;;40.05;19.67;;;;;;;1.26;100.00;96045.03;5007218;28;20030;-64
2022/01/26 11:09:11;;;;;;;46.22;20.63;;;;;;;1.46;100.00;96048.75;5002116;28;20109;-64
2022/01/26 11:11:40;;;;;;;37.83;18.05;;;;;;;1.56;100.00;96056.38;5016585;28;20407;-64
2022/01/26 11:14:21;;;;;;;39.10;19.60;;;;;;;1.64;100.00;96069.47;5023590;28;20060;-65
2022/01/26 11:17:44;;;;;;;43.35;18.55;;;;;;;1.48;100.00;96062.56;5024571;28;20022;-65
2022/01/26 11:20:31;;;;;;;37.25;17.90;;;;;;;1.45;100.00;96062.94;5013354;28;20074;-67
2022/01/26 11:23:02;;;;;;;40.83;19.73;;;;;;;1.57;100.00;96061.47;5024480;28;20029;-66
2022/01/26 11:25:30;;;;;;;36.38;18.75;;;;;;;1.95;100.00;96048.91;5023150;28;20286;-66
2022/01/26 11:27:57;;;;;;;36.22;18.90;;;;;;;2.36;100.00;96053.56;4998823;28;20026;-66
2022/01/26 11:30:31;;;;;;;32.40;17.10;;;;;;;2.68;100.00;96046.91;5024081;28;20022;-66
2022/01/26 11:33:13;;;;;;;32.58;17.88;;;;;;;3.04;100.00;96037.97;4993795;28;20025;-66
2022/01/26 11:35:42;;;;;;;40.43;17.90;;;;;;;3.38;100.00;96034.53;5024152;28;20044;-66
2022/01/26 11:46:27;;;;;;;30.35;17.58;;;;;;;4.07;100.00;96066.97;5098952;28;20031;-63
2022/01/26 11:49:10;;;;;;;28.88;15.80;;;;;;;4.19;100.00;96067.22;5077089;28;20074;-64
2022/01/26 11:51:46;;;;;;;30.00;15.68;;;;;;;4.31;100.00;96051.53;5093536;28;20028;-64
2022/01/26 11:54:16;;;;;;;33.47;17.50;;;;;;;4.65;100.00;96037.25;5073762;28;20025;-63
2022/01/26 11:57:01;;;;;;;30.58;16.00;;;;;;;4.91;100.00;96031.94;5065654;28;20078;-61
2022/01/26 11:59:29;;;;;;;27.05;15.65;;;;;;;5.21;100.00;96031.50;5061529;28;20024;-65
2022/01/26 12:02:00;;;;;;;28.75;15.75;;;;;;;5.34;100.00;96018.19;5075406;28;20036;-64
2022/01/26 12:04:26;;;;;;;31.92;15.15;;;;;;;5.35;100.00;96013.69;5093827;28;20024;-62
2022/01/26 12:07:09;;;;;;;28.50;14.45;;;;;;;5.05;100.00;96022.13;5093791;28;20027;-63
2022/01/26 12:09:41;;;;;;;28.60;14.65;;;;;;;4.68;100.00;96025.44;5091312;28;20063;-63
2022/01/26 12:12:08;;;;;;;30.33;14.85;;;;;;;4.61;100.00;96022.78;5093304;28;20094;-64
2022/01/26 12:14:58;;;;;;;27.27;14.63;;;;;;;4.49;100.00;96030.53;5083674;28;20038;-63
2022/01/26 12:17:32;;;;;;;29.67;13.82;;;;;;;4.83;100.00;96037.47;5091920;28;20449;-64
2022/01/26 12:32:07;;;;;;;26.38;14.43;;;;;;;5.11;100.00;96033.78;5093127;28;20020;-63
2022/01/26 12:37:36;;;;;;;23.15;13.10;;;;;;;6.52;100.00;95970.72;5092879;28;20120;-63
2022/01/26 12:45:07;;;;;;;22.40;12.40;;;;;;;6.44;100.00;95927.59;5070141;28;20398;-66
2022/01/26 12:47:32;;;;;;;24.70;12.85;;;;;;;6.19;100.00;95907.13;5053335;28;20063;-66
2022/01/26 12:49:58;;;;;;;21.75;12.35;;;;;;;6.44;100.00;95869.84;5091931;28;20055;-63
2022/01/26 12:52:24;;;;;;;21.50;11.95;;;;;;;6.45;100.00;95847.53;5071198;28;20048;-64
2022/01/26 12:54:50;;;;;;;17.50;10.82;;;;;;;6.39;100.00;95824.44;5066319;28;20083;-64
2022/01/26 12:57:16;;;;;;;19.20;10.40;;;;;;;6.54;100.00;95789.50;5073713;28;20040;-65
2022/01/26 12:59:44;;;;;;;17.52;10.20;;;;;;;6.73;100.00;95759.19;5073344;28;20486;-63
2022/01/26 13:02:10;;;;;;;15.95;9.38;;;;;;;7.00;100.00;95737.53;5075066;28;20368;-66
2022/01/26 13:04:36;;;;;;;15.63;9.07;;;;;;;7.26;100.00;95737.13;5054891;28;20055;-67
2022/01/26 13:07:01;;;;;;;13.35;8.82;;;;;;;7.47;100.00;95733.94;5075687;28;20024;-66
2022/01/26 13:09:29;;;;;;;14.02;8.98;;;;;;;7.55;100.00;95756.78;5084782;28;20486;-61
2022/01/26 13:12:04;;;;;;;17.88;9.15;;;;;;;7.53;100.00;95790.88;5070918;28;20124;-63
2022/01/26 13:14:56;;;;;;;13.65;8.25;;;;;;;7.77;100.00;95829.06;5059093;28;20024;-62
2022/01/26 13:34:17;;;;;;;12.95;7.88;;;;;;;7.68;100.00;96129.88;5073642;28;20035;-66
2022/01/26 14:01:46;;;;;;;12.88;7.97;;;;;;;7.01;100.00;96315.31;5075009;28;20097;-65
2022/01/26 14:04:14;;;;;;;13.93;7.60;;;;;;;6.81;100.00;96339.34;5073112;28;20341;-64
2022/01/26 14:06:40;;;;;;;14.20;7.97;;;;;;;6.75;100.00;96356.19;5073045;28;20024;-66
2022/01/26 14:09:05;;;;;;;11.65;6.70;;;;;;;6.58;100.00;96370.97;5059662;28;20088;-66
2022/01/26 14:11:31;;;;;;;12.18;7.15;;;;;;;6.43;100.00;96389.84;5056931;28;20052;-66
2022/01/26 14:13:58;;;;;;;13.60;7.72;;;;;;;6.45;100.00;96393.09;5055318;28;20024;-65
2022/01/26 14:16:26;;;;;;;14.57;7.43;;;;;;;6.39;100.00;96400.06;5057748;28;20535;-65
2022/01/26 14:27:19;;;;;;;12.38;7.13;;;;;;;6.30;100.00;96425.25;4972092;28;20031;-65
2022/01/26 14:32:44;;;;;;;11.23;6.70;;;;;;;6.47;100.00;96435.47;4972949;28;21140;-66
2022/01/26 14:40:39;;;;;;;12.20;7.00;;;;;;;6.48;100.00;96471.72;4968621;28;20506;-65
2022/01/26 14:51:40;;;;;;;13.13;7.25;;;;;;;6.10;100.00;96497.06;4984037;28;20030;-64
2022/01/26 14:54:30;;;;;;;14.82;7.78;;;;;;;5.94;100.00;96496.63;5076622;28;20399;-64
2022/01/26 15:19:15;;;;;;;12.75;7.00;;;;;;;5.38;100.00;96488.81;5078154;28;20040;-66
2022/01/26 15:35:19;;;;;;;11.18;7.13;;;;;;;4.57;100.00;96428.34;5080630;28;20489;-64
2022/01/26 15:43:36;;;;;;;14.23;7.72;;;;;;;4.21;100.00;96385.22;5042072;28;20548;-65
2022/01/26 15:52:13;;;;;;;11.98;7.53;;;;;;;3.81;100.00;96353.13;5090032;28;20512;-64
2022/01/26 16:06:17;;;;;;;20.83;8.67;;;;;;;3.14;100.00;96297.88;5082017;28;20079;-62
2022/01/26 16:38:50;;;;;;;17.80;8.77;;;;;;;1.01;100.00;96186.97;5046462;28;20029;-63
2022/01/26 16:53:11;;;;;;;19.80;10.00;;;;;;;-0.28;100.00;96155.16;5053240;28;20498;-63
2022/01/26 17:11:44;;;;;;;15.80;9.02;;;;;;;-1.44;100.00;96137.16;5046002;28;20464;-65
2022/01/26 18:13:12;;;;;;;21.13;10.32;;;;;;;-2.75;100.00;96254.03;5020100;28;20044;-66
2022/01/26 18:15:57;;;;;;;18.90;9.60;;;;;;;-2.67;100.00;96255.91;5011937;28;20494;-66
2022/01/26 18:26:47;;;;;;;21.45;10.35;;;;;;;-2.67;100.00;96277.69;5023611;28;20110;-67
2022/01/26 18:32:18;;;;;;;19.35;10.45;;;;;;;-2.70;100.00;96288.50;5041900;28;20041;-67
2022/01/26 18:51:04;;;;;;;23.65;11.10;;;;;;;-2.83;100.00;96303.78;5025623;28;20053;-67
2022/01/26 18:53:32;;;;;;;20.65;11.10;;;;;;;-2.89;100.00;96301.78;5009205;28;20432;-67
2022/01/26 18:55:58;;;;;;;23.17;11.00;;;;;;;-2.93;100.00;96305.72;5012388;28;20052;-68
2022/01/26 18:58:25;;;;;;;25.55;10.50;;;;;;;-2.90;100.00;96312.44;4976396;28;20566;-68
2022/01/26 19:00:51;;;;;;;22.08;10.90;;;;;;;-2.86;100.00;96322.47;5050075;28;20556;-67
2022/01/26 19:03:16;;;;;;;21.38;11.55;;;;;;;-2.86;100.00;96324.25;5035382;28;20100;-67
2022/01/26 19:05:42;;;;;;;22.95;10.93;;;;;;;-2.87;100.00;96327.84;5033817;28;20040;-68
2022/01/26 19:08:08;;;;;;;29.33;10.98;;;;;;;-2.90;100.00;96322.91;5047209;28;20514;-67
2022/01/26 19:10:33;;;;;;;19.92;10.30;;;;;;;-2.92;100.00;96313.41;5039622;28;20035;-67
2022/01/26 19:13:03;;;;;;;23.42;11.38;;;;;;;-2.95;100.00;96321.56;5041252;28;20084;-69
2022/01/26 19:15:31;;;;;;;17.77;9.90;;;;;;;-2.99;100.00;96316.78;5034394;28;20021;-67
2022/01/26 19:18:06;;;;;;;25.65;11.18;;;;;;;-3.01;100.00;96314.31;5041032;28;20124;-68
2022/01/26 19:20:54;;;;;;;22.90;11.55;;;;;;;-3.04;100.00;96322.50;5046226;28;20530;-67
2022/01/26 19:24:34;;;;;;;26.83;11.35;;;;;;;-3.09;100.00;96326.53;5033226;28;20061;-68
2022/01/26 19:26:20;;;;;;;23.85;11.40;;;;;;;-3.13;100.00;96323.38;5033689;28;20470;-67
2022/01/26 19:28:58;;;;;;;22.35;11.07;;;;;;;-3.17;100.00;96316.78;5034299;28;20033;-67
2022/01/26 19:45:08;;;;;;;23.48;11.23;;;;;;;-3.38;100.00;96308.38;5048110;28;20319;-66
2022/01/26 19:53:01;;;;;;;25.27;11.93;;;;;;;-3.62;100.00;96309.78;5053282;28;20608;-66
2022/01/26 19:55:33;;;;;;;21.38;11.02;;;;;;;-3.72;100.00;96298.53;5053049;28;20037;-66
2022/01/26 19:58:03;;;;;;;26.57;12.27;;;;;;;-3.77;100.00;96302.56;5051779;28;20033;-66
2022/01/26 20:00:31;;;;;;;23.00;11.02;;;;;;;-3.83;100.00;96304.78;5052613;28;20025;-66
2022/01/26 20:03:01;;;;;;;23.95;11.80;;;;;;;-3.79;100.00;96297.50;5025075;28;20022;-66
2022/01/26 20:05:28;;;;;;;25.50;13.00;;;;;;;-3.73;100.00;96291.66;5044488;28;20033;-66
2022/01/26 20:08:13;;;;;;;24.70;11.85;;;;;;;-3.60;100.00;96291.28;5033151;28;22367;-65
2022/01/26 20:10:49;;;;;;;27.67;12.45;;;;;;;-3.52;100.00;96292.22;5049453;28;20026;-65
2022/01/26 20:13:25;;;;;;;28.55;12.65;;;;;;;-3.47;100.00;96288.31;5032729;28;20031;-65
2022/01/26 20:15:50;;;;;;;26.30;13.10;;;;;;;-3.45;100.00;96291.63;5048703;28;20036;-65
2022/01/26 20:18:16;;;;;;;24.50;11.98;;;;;;;-3.46;100.00;96284.75;5038620;28;20434;-65
2022/01/26 20:20:45;;;;;;;21.33;11.55;;;;;;;-3.52;100.00;96289.59;5050499;28;20033;-65
2022/01/26 20:23:13;;;;;;;23.85;12.57;;;;;;;-3.58;100.00;96284.97;5052986;28;20357;-65
2022/01/26 20:25:44;;;;;;;24.27;11.13;;;;;;;-3.62;100.00;96280.16;5051378;28;20044;-65
2022/01/26 20:28:11;;;;;;;19.95;10.77;;;;;;;-3.65;100.00;96283.91;5037210;28;20033;-65
2022/01/26 20:30:46;;;;;;;27.88;12.38;;;;;;;-3.70;100.00;96285.28;5052098;28;20458;-65
2022/01/26 20:33:12;;;;;;;23.95;11.85;;;;;;;-3.75;100.00;96293.59;5048419;28;20029;-65
2022/01/26 20:35:38;;;;;;;23.90;11.50;;;;;;;-3.81;100.00;96292.38;5032384;28;20021;-65
2022/01/26 20:38:04;;;;;;;26.83;12.43;;;;;;;-3.83;100.00;96281.22;5035376;28;20028;-65
2022/01/26 20:40:32;;;;;;;27.75;12.25;;;;;;;-3.85;100.00;96285.81;5042357;28;20041;-65
2022/01/26 20:42:57;;;;;;;25.67;12.80;;;;;;;-3.87;100.00;96287.75;5047531;28;20028;-64
2022/01/26 20:45:27;;;;;;;24.55;11.07;;;;;;;-3.89;100.00;96296.72;5042137;28;20028;-65
2022/01/26 20:47:57;;;;;;;25.58;12.02;;;;;;;-3.92;100.00;96279.50;5031852;28;20026;-64
2022/01/26 20:50:23;;;;;;;26.25;12.13;;;;;;;-3.94;100.00;96283.22;5030877;28;20030;-64
2022/01/26 20:52:48;;;;;;;26.45;12.80;;;;;;;-3.97;100.00;96286.16;5045545;28;20052;-64
2022/01/26 20:55:16;;;;;;;24.80;12.00;;;;;;;-4.02;100.00;96283.94;5041393;28;20027;-64
2022/01/26 20:57:42;;;;;;;27.70;12.73;;;;;;;-4.08;100.00;96279.31;5045265;28;20021;-64
2022/01/26 21:00:09;;;;;;;24.90;11.68;;;;;;;-4.13;100.00;96279.72;5029578;28;20083;-64
2022/01/26 21:02:35;;;;;;;25.88;12.07;;;;;;;-4.15;100.00;96273.81;5025001;28;20039;-64
2022/01/26 21:05:01;;;;;;;23.52;12.52;;;;;;;-4.17;100.00;96269.72;5041198;28;20029;-64
2022/01/26 21:07:28;;;;;;;24.77;12.25;;;;;;;-4.16;100.00;96273.97;5036823;28;20430;-64
2022/01/26 21:09:53;;;;;;;29.80;12.23;;;;;;;-4.16;100.00;96261.72;5040161;28;20088;-64
2022/01/26 21:12:21;;;;;;;29.15;11.45;;;;;;;-4.16;100.00;96269.56;5043849;28;20017;-64
2022/01/26 21:14:50;;;;;;;23.65;12.50;;;;;;;-4.20;100.00;96262.16;5046674;28;20025;-64
2022/01/26 21:17:18;;;;;;;24.42;11.75;;;;;;;-4.27;100.00;96264.53;5037045;28;20036;-64
2022/01/26 21:19:45;;;;;;;26.42;12.07;;;;;;;-4.35;100.00;96260.97;5031427;28;20100;-64
2022/01/26 21:22:13;;;;;;;26.65;12.43;;;;;;;-4.41;100.00;96265.00;5046390;28;20384;-64
2022/01/26 21:24:40;;;;;;;22.90;11.82;;;;;;;-4.44;100.00;96258.28;5036124;28;20130;-64
2022/01/26 21:27:06;;;;;;;27.00;12.27;;;;;;;-4.48;100.00;96263.91;5038649;28;20029;-64
2022/01/26 21:29:31;;;;;;;25.33;12.05;;;;;;;-4.52;100.00;96257.34;5038510;28;20025;-64
2022/01/26 21:31:57;;;;;;;27.95;12.50;;;;;;;-4.55;100.00;96253.22;5034417;28;20021;-64
2022/01/26 21:34:22;;;;;;;30.75;13.23;;;;;;;-4.60;100.00;96252.00;5042635;28;20029;-64
2022/01/26 21:36:51;;;;;;;24.83;11.65;;;;;;;-4.65;100.00;96249.81;5049963;28;20025;-64
2022/01/26 21:39:16;;;;;;;22.73;11.27;;;;;;;-4.71;100.00;96247.75;5044208;28;20033;-64
2022/01/26 21:41:45;;;;;;;27.63;12.00;;;;;;;-4.83;100.00;96246.28;5044643;28;20155;-64
2022/01/26 21:44:11;;;;;;;21.33;11.35;;;;;;;-4.91;100.00;96241.75;5031013;28;20028;-64
2022/01/26 21:46:38;;;;;;;23.33;11.45;;;;;;;-4.96;100.00;96238.75;5030334;28;20052;-64
2022/01/26 21:49:06;;;;;;;23.38;11.80;;;;;;;-4.96;100.00;96230.91;5044536;28;20021;-66
2022/01/26 21:51:31;;;;;;;24.67;12.15;;;;;;;-4.96;100.00;96239.56;5029084;28;20017;-66
2022/01/26 21:54:05;;;;;;;24.00;12.18;;;;;;;-4.96;100.00;96218.66;5036645;28;20391;-65
2022/01/26 21:56:30;;;;;;;29.38;12.98;;;;;;;-4.94;100.00;96218.53;5049239;28;20025;-65
2022/01/26 21:58:58;;;;;;;32.08;14.55;;;;;;;-4.91;100.00;96220.84;5051265;28;20033;-64
2022/01/26 22:01:26;;;;;;;27.42;13.05;;;;;;;-4.90;100.00;96222.50;5044534;28;20025;-65
2022/01/26 22:03:52;;;;;;;31.20;13.90;;;;;;;-4.88;100.00;96212.75;5042291;28;20029;-65
2022/01/26 22:06:40;;;;;;;30.50;13.57;;;;;;;-4.87;100.00;96218.78;5029032;28;20025;-65
2022/01/26 22:09:06;;;;;;;29.85;13.57;;;;;;;-4.88;100.00;96220.59;5025710;28;20025;-65
2022/01/26 22:11:31;;;;;;;28.02;13.63;;;;;;;-4.88;100.00;96217.97;5039888;28;20490;-65
2022/01/26 22:13:57;;;;;;;26.45;13.23;;;;;;;-4.87;100.00;96216.19;5035087;28;20028;-65
2022/01/26 22:16:24;;;;;;;27.15;12.50;;;;;;;-4.83;100.00;96215.75;5039963;28;20091;-65
2022/01/26 22:18:53;;;;;;;28.27;12.50;;;;;;;-4.86;100.00;96208.19;5029753;28;20480;-65
2022/01/26 22:21:18;;;;;;;29.00;13.25;;;;;;;-4.92;100.00;96207.94;5032544;28;20017;-66
2022/01/26 22:23:44;;;;;;;25.20;13.55;;;;;;;-5.02;100.00;96200.94;5030340;28;20072;-65
2022/01/26 22:26:20;;;;;;;33.67;14.00;;;;;;;-5.06;100.00;96203.97;5034745;28;20032;-65
2022/01/26 22:28:51;;;;;;;27.00;12.85;;;;;;;-5.05;100.00;96206.44;5051392;28;20105;-64
2022/01/26 22:31:17;;;;;;;25.48;12.27;;;;;;;-5.07;100.00;96190.09;5037307;28;20025;-65
2022/01/26 22:33:45;;;;;;;27.88;13.23;;;;;;;-5.06;100.00;96196.97;5030108;28;20021;-65
2022/01/26 22:36:10;;;;;;;26.58;12.70;;;;;;;-5.12;100.00;96187.06;5050348;28;20569;-64
2022/01/26 22:38:36;;;;;;;27.42;12.70;;;;;;;-5.11;100.00;96190.50;5044213;28;20084;-64
2022/01/26 22:41:02;;;;;;;28.60;13.48;;;;;;;-5.13;100.00;96190.66;5029721;28;20045;-64
2022/01/26 22:43:35;;;;;;;30.15;13.10;;;;;;;-5.17;100.00;96197.13;5048845;28;20090;-64
2022/01/26 22:46:00;;;;;;;;;;;;;;;-5.23;100.00;96192.44;5037144;28;20040;-63
2022/01/26 22:48:31;;;;;;;25.60;12.23;;;;;;;-5.29;100.00;96190.41;5031024;28;19917;-63
2022/01/26 22:51:08;;;;;;;23.85;12.55;;;;;;;-5.39;100.00;96189.59;5039481;28;20021;-62
2022/01/26 22:53:37;;;;;;;23.45;12.07;;;;;;;-5.45;100.00;96193.56;5030778;28;20045;-63
2022/01/26 22:56:03;;;;;;;24.90;12.27;;;;;;;-5.49;100.00;96192.22;5032144;28;20082;-64
2022/01/26 22:58:28;;;;;;;29.55;13.20;;;;;;;-5.59;100.00;96197.44;5041223;28;20056;-61
2022/01/26 23:03:32;;;;;;;27.05;13.15;;;;;;;-5.75;100.00;96191.97;5045736;28;20049;-56
2022/01/26 23:08:36;;;;;;;27.38;13.10;;;;;;;-5.76;100.00;96181.63;5034660;28;20074;-59
2022/01/26 23:11:05;;;;;;;26.38;13.52;;;;;;;-5.73;100.00;96165.72;5041570;28;20038;-55
2022/01/26 23:13:31;;;;;;;28.63;12.60;;;;;;;-5.70;100.00;96171.50;5043824;28;20028;-59
2022/01/26 23:15:59;;;;;;;29.38;12.18;;;;;;;-5.69;100.00;96169.69;5042899;28;20083;-56
2022/01/26 23:18:25;;;;;;;23.95;12.10;;;;;;;-5.75;100.00;96163.25;5043758;28;20033;-54
2022/01/26 23:20:53;;;;;;;24.85;12.85;;;;;;;-5.81;100.00;96166.41;5048688;28;20036;-57
2022/01/26 23:23:18;;;;;;;26.63;12.70;;;;;;;-5.82;100.00;96167.38;5036228;28;20030;-58
2022/01/26 23:28:28;;;;;;;31.15;14.27;;;;;;;-5.81;100.00;96176.03;5037656;28;20025;-61
